sensor_id;sensor_type;location;lat;lon;timestamp;P1;durP1;ratioP1;P2;durP2;ratioP2
75280;SDS011;63874;47.230;39.620;2023-04-26T00:01:31;0.85;;;0.40;;
75280;SDS011;63874;47.230;39.620;2023-04-26T00:03:57;0.63;;;0.22;;
75280;SDS011;63874;47.230;39.620;2023-04-26T00:06:23;1.13;;;0.40;;
75280;SDS011;63874;47.230;39.620;2023-04-26T00:08:49;1.00;;;0.40;;
75280;SDS011;63874;47.230;39.620;2023-04-26T00:11:14;0.73;;;0.20;;
75280;SDS011;63874;47.230;39.620;2023-04-26T00:13:40;1.92;;;0.80;;
75280;SDS011;63874;47.230;39.620;2023-04-26T00:16:06;0.70;;;0.30;;
75280;SDS011;63874;47.230;39.620;2023-04-26T00:18:32;0.90;;;0.30;;
75280;SDS011;63874;47.230;39.620;2023-04-26T00:20:58;1.02;;;0.30;;
75280;SDS011;63874;47.230;39.620;2023-04-26T00:23:24;1.08;;;0.40;;
75280;SDS011;63874;47.230;39.620;2023-04-26T00:25:50;1.85;;;0.77;;
75280;SDS011;63874;47.230;39.620;2023-04-26T00:28:16;1.35;;;0.47;;
75280;SDS011;63874;47.230;39.620;2023-04-26T00:30:42;2.38;;;0.70;;
75280;SDS011;63874;47.230;39.620;2023-04-26T00:33:12;0.85;;;0.40;;
75280;SDS011;63874;47.230;39.620;2023-04-26T00:35:37;1.80;;;0.47;;
75280;SDS011;63874;47.230;39.620;2023-04-26T00:38:03;2.05;;;0.60;;
75280;SDS011;63874;47.230;39.620;2023-04-26T00:40:29;1.75;;;0.60;;
75280;SDS011;63874;47.230;39.620;2023-04-26T00:42:56;1.02;;;0.30;;
75280;SDS011;63874;47.230;39.620;2023-04-26T00:45:22;1.35;;;0.50;;
75280;SDS011;63874;47.230;39.620;2023-04-26T00:47:48;1.67;;;0.52;;
75280;SDS011;63874;47.230;39.620;2023-04-26T00:50:15;1.02;;;0.88;;
75280;SDS011;63874;47.230;39.620;2023-04-26T00:52:41;0.88;;;0.52;;
75280;SDS011;63874;47.230;39.620;2023-04-26T00:55:09;0.98;;;0.50;;
75280;SDS011;63874;47.230;39.620;2023-04-26T00:57:35;1.25;;;0.50;;
75280;SDS011;63874;47.230;39.620;2023-04-26T01:00:00;1.25;;;0.70;;
75280;SDS011;63874;47.230;39.620;2023-04-26T01:02:26;1.17;;;0.50;;
75280;SDS011;63874;47.230;39.620;2023-04-26T01:04:52;1.40;;;0.75;;
75280;SDS011;63874;47.230;39.620;2023-04-26T01:07:18;1.98;;;0.65;;
75280;SDS011;63874;47.230;39.620;2023-04-26T01:09:44;1.70;;;0.55;;
75280;SDS011;63874;47.230;39.620;2023-04-26T01:12:12;1.95;;;0.68;;
75280;SDS011;63874;47.230;39.620;2023-04-26T01:14:39;1.25;;;0.50;;
75280;SDS011;63874;47.230;39.620;2023-04-26T01:17:05;1.85;;;0.60;;
75280;SDS011;63874;47.230;39.620;2023-04-26T01:19:31;1.60;;;0.60;;
75280;SDS011;63874;47.230;39.620;2023-04-26T01:21:57;1.13;;;0.63;;
75280;SDS011;63874;47.230;39.620;2023-04-26T01:24:23;1.98;;;0.75;;
75280;SDS011;63874;47.230;39.620;2023-04-26T01:26:49;1.92;;;0.60;;
75280;SDS011;63874;47.230;39.620;2023-04-26T01:29:20;2.33;;;0.60;;
75280;SDS011;63874;47.230;39.620;2023-04-26T01:31:46;0.80;;;0.50;;
75280;SDS011;63874;47.230;39.620;2023-04-26T01:34:13;1.27;;;0.60;;
75280;SDS011;63874;47.230;39.620;2023-04-26T01:36:40;1.33;;;0.52;;
75280;SDS011;63874;47.230;39.620;2023-04-26T01:39:06;1.38;;;0.65;;
75280;SDS011;63874;47.230;39.620;2023-04-26T01:41:33;1.52;;;0.60;;
75280;SDS011;63874;47.230;39.620;2023-04-26T01:43:59;1.33;;;0.52;;
75280;SDS011;63874;47.230;39.620;2023-04-26T01:46:25;1.33;;;0.75;;
75280;SDS011;63874;47.230;39.620;2023-04-26T01:48:51;1.13;;;0.73;;
75280;SDS011;63874;47.230;39.620;2023-04-26T01:51:17;1.02;;;0.55;;
75280;SDS011;63874;47.230;39.620;2023-04-26T01:53:43;1.52;;;0.68;;
75280;SDS011;63874;47.230;39.620;2023-04-26T01:56:09;2.33;;;0.63;;
75280;SDS011;63874;47.230;39.620;2023-04-26T01:58:36;1.38;;;0.50;;
75280;SDS011;63874;47.230;39.620;2023-04-26T02:01:05;1.38;;;0.65;;
75280;SDS011;63874;47.230;39.620;2023-04-26T02:03:33;1.30;;;0.68;;
75280;SDS011;63874;47.230;39.620;2023-04-26T02:05:59;2.08;;;1.02;;
75280;SDS011;63874;47.230;39.620;2023-04-26T02:08:25;1.90;;;0.40;;
75280;SDS011;63874;47.230;39.620;2023-04-26T02:10:51;1.33;;;0.80;;
75280;SDS011;63874;47.230;39.620;2023-04-26T02:13:17;2.20;;;0.60;;
75280;SDS011;63874;47.230;39.620;2023-04-26T02:15:49;1.77;;;0.70;;
75280;SDS011;63874;47.230;39.620;2023-04-26T02:18:17;1.42;;;0.63;;
75280;SDS011;63874;47.230;39.620;2023-04-26T02:20:46;0.80;;;0.40;;
75280;SDS011;63874;47.230;39.620;2023-04-26T02:23:12;1.02;;;0.57;;
75280;SDS011;63874;47.230;39.620;2023-04-26T02:25:41;0.85;;;0.45;;
75280;SDS011;63874;47.230;39.620;2023-04-26T02:28:10;1.55;;;0.55;;
75280;SDS011;63874;47.230;39.620;2023-04-26T02:30:35;1.13;;;0.38;;
75280;SDS011;63874;47.230;39.620;2023-04-26T02:33:01;1.58;;;0.45;;
75280;SDS011;63874;47.230;39.620;2023-04-26T02:35:28;0.90;;;0.43;;
75280;SDS011;63874;47.230;39.620;2023-04-26T02:37:53;1.10;;;0.73;;
75280;SDS011;63874;47.230;39.620;2023-04-26T02:40:19;1.42;;;0.50;;
75280;SDS011;63874;47.230;39.620;2023-04-26T02:42:46;1.48;;;0.75;;
75280;SDS011;63874;47.230;39.620;2023-04-26T02:45:12;1.65;;;0.77;;
75280;SDS011;63874;47.230;39.620;2023-04-26T02:47:38;1.20;;;0.57;;
75280;SDS011;63874;47.230;39.620;2023-04-26T02:50:05;1.10;;;0.47;;
75280;SDS011;63874;47.230;39.620;2023-04-26T02:52:33;0.93;;;0.50;;
75280;SDS011;63874;47.230;39.620;2023-04-26T02:55:03;1.92;;;0.60;;
75280;SDS011;63874;47.230;39.620;2023-04-26T02:57:32;1.70;;;0.60;;
75280;SDS011;63874;47.230;39.620;2023-04-26T02:59:58;1.58;;;0.65;;
75280;SDS011;63874;47.230;39.620;2023-04-26T03:02:24;1.35;;;0.65;;
75280;SDS011;63874;47.230;39.620;2023-04-26T03:04:50;1.30;;;0.40;;
75280;SDS011;63874;47.230;39.620;2023-04-26T03:07:16;1.05;;;0.30;;
75280;SDS011;63874;47.230;39.620;2023-04-26T03:09:42;0.75;;;0.47;;
75280;SDS011;63874;47.230;39.620;2023-04-26T03:12:08;1.30;;;0.40;;
75280;SDS011;63874;47.230;39.620;2023-04-26T03:14:35;1.50;;;0.30;;
75280;SDS011;63874;47.230;39.620;2023-04-26T03:17:01;0.70;;;0.30;;
75280;SDS011;63874;47.230;39.620;2023-04-26T03:19:29;0.75;;;0.30;;
75280;SDS011;63874;47.230;39.620;2023-04-26T03:21:55;1.27;;;0.30;;
75280;SDS011;63874;47.230;39.620;2023-04-26T03:24:21;0.57;;;0.30;;
75280;SDS011;63874;47.230;39.620;2023-04-26T03:26:48;0.80;;;0.22;;
75280;SDS011;63874;47.230;39.620;2023-04-26T03:29:15;1.38;;;0.40;;
75280;SDS011;63874;47.230;39.620;2023-04-26T03:31:41;1.85;;;1.08;;
75280;SDS011;63874;47.230;39.620;2023-04-26T03:34:07;1.02;;;0.40;;
75280;SDS011;63874;47.230;39.620;2023-04-26T03:36:33;0.75;;;0.30;;
75280;SDS011;63874;47.230;39.620;2023-04-26T03:39:00;0.63;;;0.35;;
75280;SDS011;63874;47.230;39.620;2023-04-26T03:41:27;0.95;;;0.32;;
75280;SDS011;63874;47.230;39.620;2023-04-26T03:43:54;0.47;;;0.28;;
75280;SDS011;63874;47.230;39.620;2023-04-26T03:46:22;0.70;;;0.30;;
75280;SDS011;63874;47.230;39.620;2023-04-26T03:48:48;0.85;;;0.43;;
75280;SDS011;63874;47.230;39.620;2023-04-26T03:51:14;1.70;;;0.40;;
75280;SDS011;63874;47.230;39.620;2023-04-26T03:53:39;1.05;;;0.30;;
75280;SDS011;63874;47.230;39.620;2023-04-26T03:56:07;0.52;;;0.22;;
75280;SDS011;63874;47.230;39.620;2023-04-26T03:58:34;0.73;;;0.28;;
75280;SDS011;63874;47.230;39.620;2023-04-26T04:01:00;0.77;;;0.40;;
75280;SDS011;63874;47.230;39.620;2023-04-26T04:03:27;0.80;;;0.60;;
75280;SDS011;63874;47.230;39.620;2023-04-26T04:05:54;0.40;;;0.10;;
75280;SDS011;63874;47.230;39.620;2023-04-26T04:08:20;0.82;;;0.40;;
75280;SDS011;63874;47.230;39.620;2023-04-26T04:10:46;0.38;;;0.20;;
75280;SDS011;63874;47.230;39.620;2023-04-26T04:13:12;1.10;;;0.40;;
75280;SDS011;63874;47.230;39.620;2023-04-26T04:15:38;0.70;;;0.30;;
75280;SDS011;63874;47.230;39.620;2023-04-26T04:18:03;0.80;;;0.30;;
75280;SDS011;63874;47.230;39.620;2023-04-26T04:20:30;1.85;;;0.50;;
75280;SDS011;63874;47.230;39.620;2023-04-26T04:22:56;1.70;;;0.38;;
75280;SDS011;63874;47.230;39.620;2023-04-26T04:25:23;0.85;;;0.20;;
75280;SDS011;63874;47.230;39.620;2023-04-26T04:27:52;0.90;;;0.30;;
75280;SDS011;63874;47.230;39.620;2023-04-26T04:30:18;1.67;;;0.40;;
75280;SDS011;63874;47.230;39.620;2023-04-26T04:32:44;0.85;;;0.30;;
75280;SDS011;63874;47.230;39.620;2023-04-26T04:35:12;0.60;;;0.30;;
75280;SDS011;63874;47.230;39.620;2023-04-26T04:37:39;0.65;;;0.35;;
75280;SDS011;63874;47.230;39.620;2023-04-26T04:40:05;0.88;;;0.75;;
75280;SDS011;63874;47.230;39.620;2023-04-26T04:42:34;0.77;;;0.35;;
75280;SDS011;63874;47.230;39.620;2023-04-26T04:45:03;0.90;;;0.30;;
75280;SDS011;63874;47.230;39.620;2023-04-26T04:47:31;1.13;;;0.30;;
75280;SDS011;63874;47.230;39.620;2023-04-26T04:49:58;1.02;;;0.30;;
75280;SDS011;63874;47.230;39.620;2023-04-26T04:52:25;1.27;;;0.45;;
75280;SDS011;63874;47.230;39.620;2023-04-26T04:54:51;0.80;;;0.50;;
75280;SDS011;63874;47.230;39.620;2023-04-26T04:57:17;0.95;;;0.20;;
75280;SDS011;63874;47.230;39.620;2023-04-26T04:59:45;0.98;;;0.38;;
75280;SDS011;63874;47.230;39.620;2023-04-26T05:02:11;1.15;;;0.32;;
75280;SDS011;63874;47.230;39.620;2023-04-26T05:04:37;0.75;;;0.30;;
75280;SDS011;63874;47.230;39.620;2023-04-26T05:07:03;0.80;;;0.35;;
75280;SDS011;63874;47.230;39.620;2023-04-26T05:09:32;1.00;;;0.40;;
75280;SDS011;63874;47.230;39.620;2023-04-26T05:11:58;0.80;;;0.30;;
75280;SDS011;63874;47.230;39.620;2023-04-26T05:14:24;1.25;;;0.30;;
75280;SDS011;63874;47.230;39.620;2023-04-26T05:16:50;0.75;;;0.30;;
75280;SDS011;63874;47.230;39.620;2023-04-26T05:19:15;0.95;;;0.30;;
75280;SDS011;63874;47.230;39.620;2023-04-26T05:21:42;1.13;;;0.30;;
75280;SDS011;63874;47.230;39.620;2023-04-26T05:24:08;1.35;;;0.30;;
75280;SDS011;63874;47.230;39.620;2023-04-26T05:26:35;1.45;;;0.40;;
75280;SDS011;63874;47.230;39.620;2023-04-26T05:29:30;1.25;;;0.40;;
75280;SDS011;63874;47.230;39.620;2023-04-26T05:32:22;1.33;;;0.30;;
75280;SDS011;63874;47.230;39.620;2023-04-26T05:35:08;0.40;;;0.20;;
75280;SDS011;63874;47.230;39.620;2023-04-26T05:37:34;0.93;;;0.30;;
75280;SDS011;63874;47.230;39.620;2023-04-26T05:40:01;0.95;;;0.20;;
75280;SDS011;63874;47.230;39.620;2023-04-26T05:42:28;0.57;;;0.22;;
75280;SDS011;63874;47.230;39.620;2023-04-26T05:44:57;1.25;;;0.30;;
75280;SDS011;63874;47.230;39.620;2023-04-26T05:47:23;1.17;;;0.20;;
75280;SDS011;63874;47.230;39.620;2023-04-26T05:49:51;0.88;;;0.22;;
75280;SDS011;63874;47.230;39.620;2023-04-26T05:52:17;1.70;;;0.43;;
75280;SDS011;63874;47.230;39.620;2023-04-26T05:54:43;0.90;;;0.20;;
75280;SDS011;63874;47.230;39.620;2023-04-26T05:57:09;1.50;;;0.30;;
75280;SDS011;63874;47.230;39.620;2023-04-26T05:59:37;0.73;;;0.20;;
75280;SDS011;63874;47.230;39.620;2023-04-26T06:02:03;1.20;;;0.20;;
75280;SDS011;63874;47.230;39.620;2023-04-26T06:04:29;1.63;;;0.38;;
75280;SDS011;63874;47.230;39.620;2023-04-26T06:07:11;1.55;;;0.45;;
75280;SDS011;63874;47.230;39.620;2023-04-26T06:09:37;0.43;;;0.20;;
75280;SDS011;63874;47.230;39.620;2023-04-26T06:12:03;0.35;;;0.10;;
75280;SDS011;63874;47.230;39.620;2023-04-26T06:14:33;0.73;;;0.20;;
75280;SDS011;63874;47.230;39.620;2023-04-26T06:17:03;1.15;;;0.20;;
75280;SDS011;63874;47.230;39.620;2023-04-26T06:19:30;1.05;;;0.10;;
75280;SDS011;63874;47.230;39.620;2023-04-26T06:21:55;0.77;;;0.20;;
75280;SDS011;63874;47.230;39.620;2023-04-26T06:24:22;0.52;;;0.30;;
75280;SDS011;63874;47.230;39.620;2023-04-26T06:26:50;1.08;;;0.22;;
75280;SDS011;63874;47.230;39.620;2023-04-26T06:29:16;1.23;;;0.40;;
75280;SDS011;63874;47.230;39.620;2023-04-26T06:31:42;0.60;;;0.30;;
75280;SDS011;63874;47.230;39.620;2023-04-26T06:34:08;1.10;;;0.35;;
75280;SDS011;63874;47.230;39.620;2023-04-26T06:36:34;0.65;;;0.20;;
75280;SDS011;63874;47.230;39.620;2023-04-26T06:39:00;0.38;;;0.25;;
75280;SDS011;63874;47.230;39.620;2023-04-26T06:41:26;0.70;;;0.30;;
75280;SDS011;63874;47.230;39.620;2023-04-26T06:43:52;0.65;;;0.20;;
75280;SDS011;63874;47.230;39.620;2023-04-26T06:46:19;0.98;;;0.50;;
75280;SDS011;63874;47.230;39.620;2023-04-26T06:51:18;0.47;;;0.20;;
75280;SDS011;63874;47.230;39.620;2023-04-26T06:53:44;0.52;;;0.20;;
75280;SDS011;63874;47.230;39.620;2023-04-26T06:56:09;0.52;;;0.20;;
75280;SDS011;63874;47.230;39.620;2023-04-26T06:58:35;0.80;;;0.20;;
75280;SDS011;63874;47.230;39.620;2023-04-26T07:01:01;1.08;;;0.25;;
75280;SDS011;63874;47.230;39.620;2023-04-26T07:03:27;1.00;;;0.20;;
75280;SDS011;63874;47.230;39.620;2023-04-26T07:05:54;0.40;;;0.20;;
75280;SDS011;63874;47.230;39.620;2023-04-26T07:08:21;0.77;;;0.17;;
75280;SDS011;63874;47.230;39.620;2023-04-26T07:10:46;0.63;;;0.22;;
75280;SDS011;63874;47.230;39.620;2023-04-26T07:13:12;0.47;;;0.13;;
75280;SDS011;63874;47.230;39.620;2023-04-26T07:15:38;1.27;;;0.30;;
75280;SDS011;63874;47.230;39.620;2023-04-26T07:18:04;0.70;;;0.20;;
75280;SDS011;63874;47.230;39.620;2023-04-26T07:20:30;0.50;;;0.10;;
75280;SDS011;63874;47.230;39.620;2023-04-26T07:22:56;0.63;;;0.15;;
75280;SDS011;63874;47.230;39.620;2023-04-26T07:25:21;0.98;;;0.20;;
75280;SDS011;63874;47.230;39.620;2023-04-26T07:27:47;0.82;;;0.10;;
75280;SDS011;63874;47.230;39.620;2023-04-26T07:30:15;0.35;;;0.22;;
75280;SDS011;63874;47.230;39.620;2023-04-26T07:32:41;0.40;;;0.20;;
75280;SDS011;63874;47.230;39.620;2023-04-26T07:35:07;0.75;;;0.20;;
75280;SDS011;63874;47.230;39.620;2023-04-26T07:37:40;0.70;;;0.20;;
75280;SDS011;63874;47.230;39.620;2023-04-26T07:40:07;0.32;;;0.13;;
75280;SDS011;63874;47.230;39.620;2023-04-26T07:42:36;0.90;;;0.25;;
75280;SDS011;63874;47.230;39.620;2023-04-26T07:45:02;0.75;;;0.20;;
75280;SDS011;63874;47.230;39.620;2023-04-26T07:47:27;0.30;;;0.10;;
75280;SDS011;63874;47.230;39.620;2023-04-26T07:49:53;0.95;;;0.25;;
75280;SDS011;63874;47.230;39.620;2023-04-26T07:52:19;0.50;;;0.10;;
75280;SDS011;63874;47.230;39.620;2023-04-26T07:54:45;0.70;;;0.20;;
75280;SDS011;63874;47.230;39.620;2023-04-26T07:57:11;0.40;;;0.20;;
75280;SDS011;63874;47.230;39.620;2023-04-26T07:59:37;0.82;;;0.20;;
75280;SDS011;63874;47.230;39.620;2023-04-26T08:02:03;0.55;;;0.10;;
75280;SDS011;63874;47.230;39.620;2023-04-26T08:04:30;0.93;;;0.15;;
75280;SDS011;63874;47.230;39.620;2023-04-26T08:06:58;1.15;;;0.20;;
75280;SDS011;63874;47.230;39.620;2023-04-26T08:09:26;0.20;;;0.10;;
75280;SDS011;63874;47.230;39.620;2023-04-26T08:11:53;0.60;;;0.30;;
75280;SDS011;63874;47.230;39.620;2023-04-26T08:14:19;0.60;;;0.20;;
75280;SDS011;63874;47.230;39.620;2023-04-26T08:16:45;0.50;;;0.13;;
75280;SDS011;63874;47.230;39.620;2023-04-26T08:19:11;0.52;;;0.10;;
75280;SDS011;63874;47.230;39.620;2023-04-26T08:21:37;0.63;;;0.22;;
75280;SDS011;63874;47.230;39.620;2023-04-26T08:24:03;0.73;;;0.20;;
75280;SDS011;63874;47.230;39.620;2023-04-26T08:26:29;0.70;;;0.35;;
75280;SDS011;63874;47.230;39.620;2023-04-26T08:28:54;0.93;;;0.20;;
75280;SDS011;63874;47.230;39.620;2023-04-26T08:31:21;0.22;;;0.13;;
75280;SDS011;63874;47.230;39.620;2023-04-26T08:33:47;1.00;;;0.10;;
75280;SDS011;63874;47.230;39.620;2023-04-26T08:36:13;0.30;;;0.10;;
75280;SDS011;63874;47.230;39.620;2023-04-26T08:38:39;0.55;;;0.32;;
75280;SDS011;63874;47.230;39.620;2023-04-26T08:41:05;0.40;;;0.20;;
75280;SDS011;63874;47.230;39.620;2023-04-26T08:43:34;0.57;;;0.30;;
75280;SDS011;63874;47.230;39.620;2023-04-26T08:46:01;0.50;;;0.38;;
75280;SDS011;63874;47.230;39.620;2023-04-26T08:48:32;0.43;;;0.10;;
75280;SDS011;63874;47.230;39.620;2023-04-26T08:51:00;0.28;;;0.20;;
75280;SDS011;63874;47.230;39.620;2023-04-26T08:53:27;0.65;;;0.10;;
75280;SDS011;63874;47.230;39.620;2023-04-26T08:55:55;0.30;;;0.10;;
75280;SDS011;63874;47.230;39.620;2023-04-26T08:58:21;0.30;;;0.20;;
75280;SDS011;63874;47.230;39.620;2023-04-26T09:00:47;0.20;;;0.10;;
75280;SDS011;63874;47.230;39.620;2023-04-26T09:03:15;0.47;;;0.40;;
75280;SDS011;63874;47.230;39.620;2023-04-26T09:05:40;0.40;;;0.20;;
75280;SDS011;63874;47.230;39.620;2023-04-26T09:08:14;1.10;;;0.20;;
75280;SDS011;63874;47.230;39.620;2023-04-26T09:10:41;0.60;;;0.38;;
75280;SDS011;63874;47.230;39.620;2023-04-26T09:13:07;0.50;;;0.10;;
75280;SDS011;63874;47.230;39.620;2023-04-26T09:15:33;0.25;;;0.15;;
75280;SDS011;63874;47.230;39.620;2023-04-26T09:18:32;0.55;;;0.25;;
75280;SDS011;63874;47.230;39.620;2023-04-26T09:21:01;0.35;;;0.20;;
75280;SDS011;63874;47.230;39.620;2023-04-26T09:23:31;0.60;;;0.10;;
75280;SDS011;63874;47.230;39.620;2023-04-26T09:28:45;0.30;;;0.10;;
75280;SDS011;63874;47.230;39.620;2023-04-26T09:34:13;0.15;;;0.05;;
75280;SDS011;63874;47.230;39.620;2023-04-26T09:36:49;0.30;;;0.10;;
75280;SDS011;63874;47.230;39.620;2023-04-26T09:39:33;0.57;;;0.10;;
75280;SDS011;63874;47.230;39.620;2023-04-26T09:42:04;0.65;;;0.10;;
75280;SDS011;63874;47.230;39.620;2023-04-26T09:44:31;0.57;;;0.20;;
75280;SDS011;63874;47.230;39.620;2023-04-26T09:47:04;0.45;;;0.32;;
75280;SDS011;63874;47.230;39.620;2023-04-26T09:49:44;0.35;;;0.30;;
75280;SDS011;63874;47.230;39.620;2023-04-26T09:52:15;0.20;;;0.08;;
75280;SDS011;63874;47.230;39.620;2023-04-26T09:54:43;0.20;;;0.10;;
75280;SDS011;63874;47.230;39.620;2023-04-26T09:57:11;1.15;;;0.20;;
75280;SDS011;63874;47.230;39.620;2023-04-26T09:59:42;0.22;;;0.00;;
75280;SDS011;63874;47.230;39.620;2023-04-26T10:04:49;0.47;;;0.10;;
75280;SDS011;63874;47.230;39.620;2023-04-26T10:07:18;0.50;;;0.00;;
75280;SDS011;63874;47.230;39.620;2023-04-26T10:09:45;0.10;;;0.00;;
75280;SDS011;63874;47.230;39.620;2023-04-26T10:12:13;0.80;;;0.30;;
75280;SDS011;63874;47.230;39.620;2023-04-26T10:14:40;0.17;;;0.03;;
75280;SDS011;63874;47.230;39.620;2023-04-26T10:17:08;0.10;;;0.00;;
75280;SDS011;63874;47.230;39.620;2023-04-26T10:19:36;0.60;;;0.10;;
75280;SDS011;63874;47.230;39.620;2023-04-26T10:22:08;0.22;;;0.00;;
75280;SDS011;63874;47.230;39.620;2023-04-26T10:24:38;0.30;;;0.05;;
75280;SDS011;63874;47.230;39.620;2023-04-26T10:27:05;0.65;;;0.17;;
75280;SDS011;63874;47.230;39.620;2023-04-26T10:32:19;0.30;;;0.10;;
75280;SDS011;63874;47.230;39.620;2023-04-26T10:40:25;0.40;;;0.00;;
75280;SDS011;63874;47.230;39.620;2023-04-26T10:45:34;0.20;;;0.00;;
75280;SDS011;63874;47.230;39.620;2023-04-26T10:51:14;0.30;;;0.00;;
75280;SDS011;63874;47.230;39.620;2023-04-26T10:58:48;0.55;;;0.13;;
75280;SDS011;63874;47.230;39.620;2023-04-26T11:06:23;0.22;;;0.10;;
75280;SDS011;63874;47.230;39.620;2023-04-26T11:08:51;0.75;;;0.00;;
75280;SDS011;63874;47.230;39.620;2023-04-26T11:11:18;0.20;;;0.08;;
75280;SDS011;63874;47.230;39.620;2023-04-26T11:13:44;0.30;;;0.10;;
75280;SDS011;63874;47.230;39.620;2023-04-26T11:16:14;0.40;;;0.10;;
75280;SDS011;63874;47.230;39.620;2023-04-26T11:18:44;0.30;;;0.20;;
75280;SDS011;63874;47.230;39.620;2023-04-26T11:21:12;0.47;;;0.10;;
75280;SDS011;63874;47.230;39.620;2023-04-26T11:23:42;0.22;;;0.08;;
75280;SDS011;63874;47.230;39.620;2023-04-26T11:26:17;0.40;;;0.10;;
75280;SDS011;63874;47.230;39.620;2023-04-26T11:28:42;0.40;;;0.20;;
75280;SDS011;63874;47.230;39.620;2023-04-26T11:31:10;0.20;;;0.03;;
75280;SDS011;63874;47.230;39.620;2023-04-26T11:33:37;0.20;;;0.10;;
75280;SDS011;63874;47.230;39.620;2023-04-26T11:36:05;0.73;;;0.30;;
75280;SDS011;63874;47.230;39.620;2023-04-26T11:38:31;0.40;;;0.22;;
75280;SDS011;63874;47.230;39.620;2023-04-26T11:40:59;0.20;;;0.10;;
75280;SDS011;63874;47.230;39.620;2023-04-26T11:43:43;0.20;;;0.00;;
75280;SDS011;63874;47.230;39.620;2023-04-26T11:46:09;0.65;;;0.35;;
75280;SDS011;63874;47.230;39.620;2023-04-26T11:48:36;0.20;;;0.10;;
75280;SDS011;63874;47.230;39.620;2023-04-26T11:51:08;0.68;;;0.40;;
75280;SDS011;63874;47.230;39.620;2023-04-26T11:53:36;0.22;;;0.10;;
75280;SDS011;63874;47.230;39.620;2023-04-26T11:56:16;0.68;;;0.10;;
75280;SDS011;63874;47.230;39.620;2023-04-26T11:58:43;0.70;;;0.03;;
75280;SDS011;63874;47.230;39.620;2023-04-26T12:01:18;0.22;;;0.10;;
75280;SDS011;63874;47.230;39.620;2023-04-26T12:03:49;0.13;;;0.03;;
75280;SDS011;63874;47.230;39.620;2023-04-26T12:06:16;0.30;;;0.13;;
75280;SDS011;63874;47.230;39.620;2023-04-26T12:08:48;0.35;;;0.03;;
75280;SDS011;63874;47.230;39.620;2023-04-26T12:11:15;0.32;;;0.20;;
75280;SDS011;63874;47.230;39.620;2023-04-26T12:13:41;0.43;;;0.10;;
75280;SDS011;63874;47.230;39.620;2023-04-26T12:16:07;0.10;;;0.00;;
75280;SDS011;63874;47.230;39.620;2023-04-26T12:18:34;0.10;;;0.00;;
75280;SDS011;63874;47.230;39.620;2023-04-26T12:21:00;0.65;;;0.13;;
75280;SDS011;63874;47.230;39.620;2023-04-26T12:23:26;0.77;;;0.22;;
75280;SDS011;63874;47.230;39.620;2023-04-26T12:25:53;1.25;;;0.25;;
75280;SDS011;63874;47.230;39.620;2023-04-26T12:28:20;0.30;;;0.10;;
75280;SDS011;63874;47.230;39.620;2023-04-26T12:30:46;0.60;;;0.00;;
75280;SDS011;63874;47.230;39.620;2023-04-26T12:33:13;0.47;;;0.20;;
75280;SDS011;63874;47.230;39.620;2023-04-26T12:35:39;1.42;;;0.20;;
75280;SDS011;63874;47.230;39.620;2023-04-26T12:38:05;0.35;;;0.10;;
75280;SDS011;63874;47.230;39.620;2023-04-26T12:40:31;1.80;;;0.00;;
75280;SDS011;63874;47.230;39.620;2023-04-26T12:42:57;0.30;;;0.10;;
75280;SDS011;63874;47.230;39.620;2023-04-26T12:45:23;0.50;;;0.30;;
75280;SDS011;63874;47.230;39.620;2023-04-26T12:47:52;0.35;;;0.10;;
75280;SDS011;63874;47.230;39.620;2023-04-26T12:50:18;0.20;;;0.00;;
75280;SDS011;63874;47.230;39.620;2023-04-26T12:52:45;0.40;;;0.10;;
75280;SDS011;63874;47.230;39.620;2023-04-26T12:55:11;0.32;;;0.13;;
75280;SDS011;63874;47.230;39.620;2023-04-26T12:57:39;0.20;;;0.10;;
75280;SDS011;63874;47.230;39.620;2023-04-26T13:00:10;0.20;;;0.10;;
75280;SDS011;63874;47.230;39.620;2023-04-26T13:02:39;0.17;;;0.10;;
75280;SDS011;63874;47.230;39.620;2023-04-26T13:05:06;0.90;;;0.10;;
75280;SDS011;63874;47.230;39.620;2023-04-26T13:07:33;0.30;;;0.20;;
75280;SDS011;63874;47.230;39.620;2023-04-26T13:10:01;0.50;;;0.20;;
75280;SDS011;63874;47.230;39.620;2023-04-26T13:12:27;0.65;;;0.10;;
75280;SDS011;63874;47.230;39.620;2023-04-26T13:14:53;0.40;;;0.10;;
75280;SDS011;63874;47.230;39.620;2023-04-26T13:17:22;0.20;;;0.00;;
75280;SDS011;63874;47.230;39.620;2023-04-26T13:19:49;0.10;;;0.00;;
75280;SDS011;63874;47.230;39.620;2023-04-26T13:22:17;0.20;;;0.10;;
75280;SDS011;63874;47.230;39.620;2023-04-26T13:24:44;0.52;;;0.22;;
75280;SDS011;63874;47.230;39.620;2023-04-26T13:27:10;0.32;;;0.20;;
75280;SDS011;63874;47.230;39.620;2023-04-26T13:29:37;0.35;;;0.13;;
75280;SDS011;63874;47.230;39.620;2023-04-26T13:32:03;0.20;;;0.10;;
75280;SDS011;63874;47.230;39.620;2023-04-26T13:34:29;0.80;;;0.15;;
75280;SDS011;63874;47.230;39.620;2023-04-26T13:36:55;0.20;;;0.10;;
75280;SDS011;63874;47.230;39.620;2023-04-26T13:39:22;0.30;;;0.15;;
75280;SDS011;63874;47.230;39.620;2023-04-26T13:41:49;0.82;;;0.20;;
75280;SDS011;63874;47.230;39.620;2023-04-26T13:44:15;0.65;;;0.38;;
75280;SDS011;63874;47.230;39.620;2023-04-26T13:46:41;0.13;;;0.03;;
75280;SDS011;63874;47.230;39.620;2023-04-26T13:49:07;0.50;;;0.10;;
75280;SDS011;63874;47.230;39.620;2023-04-26T13:51:36;0.90;;;0.03;;
75280;SDS011;63874;47.230;39.620;2023-04-26T13:54:03;0.30;;;0.10;;
75280;SDS011;63874;47.230;39.620;2023-04-26T13:56:30;0.52;;;0.20;;
75280;SDS011;63874;47.230;39.620;2023-04-26T13:58:59;1.65;;;0.10;;
75280;SDS011;63874;47.230;39.620;2023-04-26T14:01:26;1.30;;;0.13;;
75280;SDS011;63874;47.230;39.620;2023-04-26T14:03:52;1.48;;;0.55;;
75280;SDS011;63874;47.230;39.620;2023-04-26T14:06:18;0.68;;;0.20;;
75280;SDS011;63874;47.230;39.620;2023-04-26T14:08:43;0.57;;;0.10;;
75280;SDS011;63874;47.230;39.620;2023-04-26T14:11:09;0.35;;;0.10;;
75280;SDS011;63874;47.230;39.620;2023-04-26T14:13:36;0.57;;;0.22;;
75280;SDS011;63874;47.230;39.620;2023-04-26T14:16:02;0.52;;;0.10;;
75280;SDS011;63874;47.230;39.620;2023-04-26T14:18:28;0.30;;;0.20;;
75280;SDS011;63874;47.230;39.620;2023-04-26T14:20:54;0.85;;;0.22;;
75280;SDS011;63874;47.230;39.620;2023-04-26T14:23:19;0.50;;;0.30;;
75280;SDS011;63874;47.230;39.620;2023-04-26T14:25:45;0.20;;;0.05;;
75280;SDS011;63874;47.230;39.620;2023-04-26T14:28:16;0.10;;;0.10;;
75280;SDS011;63874;47.230;39.620;2023-04-26T14:30:42;1.17;;;0.10;;
75280;SDS011;63874;47.230;39.620;2023-04-26T14:33:08;1.02;;;0.22;;
75280;SDS011;63874;47.230;39.620;2023-04-26T14:35:37;0.85;;;0.10;;
75280;SDS011;63874;47.230;39.620;2023-04-26T14:38:03;0.50;;;0.10;;
75280;SDS011;63874;47.230;39.620;2023-04-26T14:40:30;0.30;;;0.10;;
75280;SDS011;63874;47.230;39.620;2023-04-26T14:42:56;0.80;;;0.30;;
75280;SDS011;63874;47.230;39.620;2023-04-26T14:45:22;0.60;;;0.10;;
75280;SDS011;63874;47.230;39.620;2023-04-26T14:47:48;0.30;;;0.17;;
75280;SDS011;63874;47.230;39.620;2023-04-26T14:50:14;0.70;;;0.20;;
75280;SDS011;63874;47.230;39.620;2023-04-26T14:52:40;0.65;;;0.13;;
75280;SDS011;63874;47.230;39.620;2023-04-26T14:55:06;1.42;;;0.10;;
75280;SDS011;63874;47.230;39.620;2023-04-26T14:57:33;0.60;;;0.10;;
75280;SDS011;63874;47.230;39.620;2023-04-26T14:59:59;0.20;;;0.10;;
75280;SDS011;63874;47.230;39.620;2023-04-26T15:04:57;0.68;;;0.10;;
75280;SDS011;63874;47.230;39.620;2023-04-26T15:07:22;0.52;;;0.10;;
75280;SDS011;63874;47.230;39.620;2023-04-26T15:09:48;0.65;;;0.20;;
75280;SDS011;63874;47.230;39.620;2023-04-26T15:12:14;0.32;;;0.10;;